sensor_id;sensor_type;location;lat;lon;timestamp;P1;durP1;ratioP1;P2;durP2;ratioP2
64667;SDS011;51077;42.716;23.344;2023-05-07T00:01:46;11.17;;;7.33;;
64667;SDS011;51077;42.716;23.344;2023-05-07T00:04:12;10.07;;;7.00;;
64667;SDS011;51077;42.716;23.344;2023-05-07T00:06:38;9.40;;;6.93;;
64667;SDS011;51077;42.716;23.344;2023-05-07T00:09:03;10.27;;;6.60;;
64667;SDS011;51077;42.716;23.344;2023-05-07T00:11:29;9.30;;;6.40;;
64667;SDS011;51077;42.716;23.344;2023-05-07T00:13:54;10.03;;;6.93;;
64667;SDS011;51077;42.716;23.344;2023-05-07T00:16:20;9.77;;;6.63;;
64667;SDS011;51077;42.716;23.344;2023-05-07T00:18:45;10.33;;;6.23;;
64667;SDS011;51077;42.716;23.344;2023-05-07T00:21:11;8.90;;;6.13;;
64667;SDS011;51077;42.716;23.344;2023-05-07T00:23:36;9.57;;;6.10;;
64667;SDS011;51077;42.716;23.344;2023-05-07T00:26:02;9.17;;;6.07;;
64667;SDS011;51077;42.716;23.344;2023-05-07T00:28:28;8.50;;;6.30;;
64667;SDS011;51077;42.716;23.344;2023-05-07T00:30:53;7.63;;;5.83;;
64667;SDS011;51077;42.716;23.344;2023-05-07T00:33:18;10.93;;;6.70;;
64667;SDS011;51077;42.716;23.344;2023-05-07T00:35:45;9.52;;;6.80;;
64667;SDS011;51077;42.716;23.344;2023-05-07T00:38:10;10.57;;;6.67;;
64667;SDS011;51077;42.716;23.344;2023-05-07T00:40:36;9.00;;;6.20;;
64667;SDS011;51077;42.716;23.344;2023-05-07T00:43:01;11.27;;;6.70;;
64667;SDS011;51077;42.716;23.344;2023-05-07T00:45:27;10.47;;;6.30;;
64667;SDS011;51077;42.716;23.344;2023-05-07T00:47:57;8.65;;;6.30;;
64667;SDS011;51077;42.716;23.344;2023-05-07T00:50:24;9.60;;;6.55;;
64667;SDS011;51077;42.716;23.344;2023-05-07T00:52:50;10.98;;;6.85;;
64667;SDS011;51077;42.716;23.344;2023-05-07T00:55:15;9.47;;;6.40;;
64667;SDS011;51077;42.716;23.344;2023-05-07T00:57:41;11.30;;;6.90;;
64667;SDS011;51077;42.716;23.344;2023-05-07T01:00:07;11.20;;;6.67;;
64667;SDS011;51077;42.716;23.344;2023-05-07T01:02:35;9.75;;;6.18;;
64667;SDS011;51077;42.716;23.344;2023-05-07T01:05:01;9.40;;;5.97;;
64667;SDS011;51077;42.716;23.344;2023-05-07T01:07:31;9.55;;;6.43;;
64667;SDS011;51077;42.716;23.344;2023-05-07T01:09:58;8.70;;;5.90;;
64667;SDS011;51077;42.716;23.344;2023-05-07T01:12:24;7.60;;;6.05;;
64667;SDS011;51077;42.716;23.344;2023-05-07T01:14:50;10.00;;;6.43;;
64667;SDS011;51077;42.716;23.344;2023-05-07T01:17:16;8.57;;;6.18;;
64667;SDS011;51077;42.716;23.344;2023-05-07T01:19:42;10.18;;;5.93;;
64667;SDS011;51077;42.716;23.344;2023-05-07T01:22:09;8.63;;;6.03;;
64667;SDS011;51077;42.716;23.344;2023-05-07T01:24:37;10.25;;;6.15;;
64667;SDS011;51077;42.716;23.344;2023-05-07T01:27:03;9.10;;;6.00;;
64667;SDS011;51077;42.716;23.344;2023-05-07T01:29:29;9.73;;;6.05;;
64667;SDS011;51077;42.716;23.344;2023-05-07T01:31:58;8.20;;;5.20;;
64667;SDS011;51077;42.716;23.344;2023-05-07T01:34:25;10.45;;;6.07;;
64667;SDS011;51077;42.716;23.344;2023-05-07T01:36:53;8.40;;;6.43;;
64667;SDS011;51077;42.716;23.344;2023-05-07T01:39:21;9.20;;;5.57;;
64667;SDS011;51077;42.716;23.344;2023-05-07T01:41:49;8.25;;;5.43;;
64667;SDS011;51077;42.716;23.344;2023-05-07T01:44:14;8.67;;;5.43;;
64667;SDS011;51077;42.716;23.344;2023-05-07T01:46:41;6.82;;;5.32;;
64667;SDS011;51077;42.716;23.344;2023-05-07T01:49:07;7.70;;;4.90;;
64667;SDS011;51077;42.716;23.344;2023-05-07T01:51:33;8.05;;;5.65;;
64667;SDS011;51077;42.716;23.344;2023-05-07T01:53:59;8.93;;;4.70;;
64667;SDS011;51077;42.716;23.344;2023-05-07T01:56:25;9.50;;;4.82;;
64667;SDS011;51077;42.716;23.344;2023-05-07T01:58:51;9.20;;;5.00;;
64667;SDS011;51077;42.716;23.344;2023-05-07T02:01:17;10.98;;;4.47;;
64667;SDS011;51077;42.716;23.344;2023-05-07T02:03:43;7.18;;;4.50;;
64667;SDS011;51077;42.716;23.344;2023-05-07T02:06:09;6.97;;;4.55;;
64667;SDS011;51077;42.716;23.344;2023-05-07T02:08:34;8.70;;;4.70;;
64667;SDS011;51077;42.716;23.344;2023-05-07T02:11:00;6.40;;;4.30;;
64667;SDS011;51077;42.716;23.344;2023-05-07T02:13:26;6.83;;;4.60;;
64667;SDS011;51077;42.716;23.344;2023-05-07T02:15:54;9.45;;;3.95;;
64667;SDS011;51077;42.716;23.344;2023-05-07T02:18:19;7.57;;;4.50;;
64667;SDS011;51077;42.716;23.344;2023-05-07T02:20:45;7.87;;;4.30;;
64667;SDS011;51077;42.716;23.344;2023-05-07T02:23:10;9.53;;;4.40;;
64667;SDS011;51077;42.716;23.344;2023-05-07T02:25:35;6.10;;;3.87;;
64667;SDS011;51077;42.716;23.344;2023-05-07T02:28:01;7.67;;;3.97;;
64667;SDS011;51077;42.716;23.344;2023-05-07T02:30:26;7.73;;;4.57;;
64667;SDS011;51077;42.716;23.344;2023-05-07T02:32:52;5.40;;;3.70;;
64667;SDS011;51077;42.716;23.344;2023-05-07T02:35:17;6.40;;;4.40;;
64667;SDS011;51077;42.716;23.344;2023-05-07T02:37:43;7.93;;;3.77;;
64667;SDS011;51077;42.716;23.344;2023-05-07T02:40:08;7.03;;;4.77;;
64667;SDS011;51077;42.716;23.344;2023-05-07T02:42:34;6.05;;;4.10;;
64667;SDS011;51077;42.716;23.344;2023-05-07T02:45:00;6.73;;;4.03;;
64667;SDS011;51077;42.716;23.344;2023-05-07T02:47:25;7.20;;;4.33;;
64667;SDS011;51077;42.716;23.344;2023-05-07T02:49:54;5.95;;;4.25;;
64667;SDS011;51077;42.716;23.344;2023-05-07T02:52:20;6.18;;;4.53;;
64667;SDS011;51077;42.716;23.344;2023-05-07T02:54:46;6.63;;;4.10;;
64667;SDS011;51077;42.716;23.344;2023-05-07T02:57:11;7.83;;;4.17;;
64667;SDS011;51077;42.716;23.344;2023-05-07T02:59:37;8.23;;;4.53;;
64667;SDS011;51077;42.716;23.344;2023-05-07T03:02:02;6.03;;;4.57;;
64667;SDS011;51077;42.716;23.344;2023-05-07T03:04:28;7.27;;;4.23;;
64667;SDS011;51077;42.716;23.344;2023-05-07T03:06:53;6.07;;;4.10;;
64667;SDS011;51077;42.716;23.344;2023-05-07T03:09:18;6.63;;;4.13;;
64667;SDS011;51077;42.716;23.344;2023-05-07T03:11:44;5.83;;;4.00;;
64667;SDS011;51077;42.716;23.344;2023-05-07T03:14:09;7.63;;;5.13;;
64667;SDS011;51077;42.716;23.344;2023-05-07T03:16:35;5.37;;;3.90;;
64667;SDS011;51077;42.716;23.344;2023-05-07T03:19:00;6.00;;;3.80;;
64667;SDS011;51077;42.716;23.344;2023-05-07T03:21:26;5.70;;;4.20;;
64667;SDS011;51077;42.716;23.344;2023-05-07T03:23:51;8.60;;;5.10;;
64667;SDS011;51077;42.716;23.344;2023-05-07T03:26:17;6.00;;;4.10;;
64667;SDS011;51077;42.716;23.344;2023-05-07T03:28:42;6.17;;;4.17;;
64667;SDS011;51077;42.716;23.344;2023-05-07T03:31:07;6.33;;;3.97;;
64667;SDS011;51077;42.716;23.344;2023-05-07T03:33:33;8.07;;;4.00;;
64667;SDS011;51077;42.716;23.344;2023-05-07T03:36:00;6.50;;;4.28;;
64667;SDS011;51077;42.716;23.344;2023-05-07T03:38:25;7.30;;;4.57;;
64667;SDS011;51077;42.716;23.344;2023-05-07T03:40:51;6.40;;;3.80;;
64667;SDS011;51077;42.716;23.344;2023-05-07T03:43:16;7.00;;;4.23;;
64667;SDS011;51077;42.716;23.344;2023-05-07T03:45:42;10.10;;;4.20;;
64667;SDS011;51077;42.716;23.344;2023-05-07T03:48:07;8.73;;;5.30;;
64667;SDS011;51077;42.716;23.344;2023-05-07T03:50:33;6.27;;;4.10;;
64667;SDS011;51077;42.716;23.344;2023-05-07T03:52:58;8.80;;;4.93;;
64667;SDS011;51077;42.716;23.344;2023-05-07T03:55:23;6.17;;;4.27;;
64667;SDS011;51077;42.716;23.344;2023-05-07T03:57:50;6.38;;;4.25;;
64667;SDS011;51077;42.716;23.344;2023-05-07T04:00:15;5.97;;;4.57;;
64667;SDS011;51077;42.716;23.344;2023-05-07T04:02:41;5.83;;;3.90;;
64667;SDS011;51077;42.716;23.344;2023-05-07T04:05:06;8.23;;;4.67;;
64667;SDS011;51077;42.716;23.344;2023-05-07T04:07:32;10.20;;;4.30;;
64667;SDS011;51077;42.716;23.344;2023-05-07T04:09:58;7.37;;;4.37;;
64667;SDS011;51077;42.716;23.344;2023-05-07T04:12:23;7.57;;;4.50;;
64667;SDS011;51077;42.716;23.344;2023-05-07T04:14:48;5.27;;;4.10;;
64667;SDS011;51077;42.716;23.344;2023-05-07T04:17:14;5.23;;;4.10;;
64667;SDS011;51077;42.716;23.344;2023-05-07T04:19:39;5.93;;;4.30;;
64667;SDS011;51077;42.716;23.344;2023-05-07T04:22:10;8.00;;;4.82;;
64667;SDS011;51077;42.716;23.344;2023-05-07T04:24:35;6.57;;;4.60;;
64667;SDS011;51077;42.716;23.344;2023-05-07T04:27:00;7.17;;;3.90;;
64667;SDS011;51077;42.716;23.344;2023-05-07T04:29:26;6.63;;;4.37;;
64667;SDS011;51077;42.716;23.344;2023-05-07T04:31:52;7.20;;;4.40;;
64667;SDS011;51077;42.716;23.344;2023-05-07T04:34:17;7.87;;;4.23;;
64667;SDS011;51077;42.716;23.344;2023-05-07T04:36:43;6.80;;;3.90;;
64667;SDS011;51077;42.716;23.344;2023-05-07T04:39:08;5.90;;;4.40;;
64667;SDS011;51077;42.716;23.344;2023-05-07T04:41:35;6.73;;;4.07;;
64667;SDS011;51077;42.716;23.344;2023-05-07T04:44:01;5.72;;;4.10;;
64667;SDS011;51077;42.716;23.344;2023-05-07T04:46:29;6.57;;;4.53;;
64667;SDS011;51077;42.716;23.344;2023-05-07T04:48:55;8.82;;;4.25;;
64667;SDS011;51077;42.716;23.344;2023-05-07T04:51:20;5.90;;;4.10;;
64667;SDS011;51077;42.716;23.344;2023-05-07T04:53:46;7.40;;;4.40;;
64667;SDS011;51077;42.716;23.344;2023-05-07T04:56:11;6.33;;;4.20;;
64667;SDS011;51077;42.716;23.344;2023-05-07T04:58:37;6.40;;;4.53;;
64667;SDS011;51077;42.716;23.344;2023-05-07T05:01:02;8.17;;;4.73;;
64667;SDS011;51077;42.716;23.344;2023-05-07T05:03:27;5.93;;;4.10;;
64667;SDS011;51077;42.716;23.344;2023-05-07T05:05:53;6.70;;;3.93;;
64667;SDS011;51077;42.716;23.344;2023-05-07T05:08:18;8.77;;;4.57;;
64667;SDS011;51077;42.716;23.344;2023-05-07T05:10:43;6.90;;;4.50;;
64667;SDS011;51077;42.716;23.344;2023-05-07T05:13:09;5.07;;;3.70;;
64667;SDS011;51077;42.716;23.344;2023-05-07T05:15:37;7.18;;;4.20;;
64667;SDS011;51077;42.716;23.344;2023-05-07T05:18:03;9.30;;;4.60;;
64667;SDS011;51077;42.716;23.344;2023-05-07T05:20:28;5.27;;;3.77;;
64667;SDS011;51077;42.716;23.344;2023-05-07T05:22:54;7.40;;;4.00;;
64667;SDS011;51077;42.716;23.344;2023-05-07T05:25:19;8.83;;;4.07;;
64667;SDS011;51077;42.716;23.344;2023-05-07T05:27:44;5.43;;;3.93;;
64667;SDS011;51077;42.716;23.344;2023-05-07T05:30:10;7.23;;;4.23;;
64667;SDS011;51077;42.716;23.344;2023-05-07T05:32:36;6.82;;;4.38;;
64667;SDS011;51077;42.716;23.344;2023-05-07T05:35:01;6.23;;;3.83;;
64667;SDS011;51077;42.716;23.344;2023-05-07T05:37:27;7.30;;;3.90;;
64667;SDS011;51077;42.716;23.344;2023-05-07T05:39:52;7.07;;;4.63;;
64667;SDS011;51077;42.716;23.344;2023-05-07T05:42:19;7.72;;;4.18;;
64667;SDS011;51077;42.716;23.344;2023-05-07T05:44:45;6.43;;;4.20;;
64667;SDS011;51077;42.716;23.344;2023-05-07T05:47:10;6.13;;;4.10;;
64667;SDS011;51077;42.716;23.344;2023-05-07T05:49:36;7.03;;;4.27;;
64667;SDS011;51077;42.716;23.344;2023-05-07T05:52:01;6.17;;;3.93;;
64667;SDS011;51077;42.716;23.344;2023-05-07T05:54:27;5.60;;;4.07;;
64667;SDS011;51077;42.716;23.344;2023-05-07T05:56:52;6.53;;;4.40;;
64667;SDS011;51077;42.716;23.344;2023-05-07T05:59:17;5.97;;;4.20;;
64667;SDS011;51077;42.716;23.344;2023-05-07T06:01:43;5.93;;;4.43;;
64667;SDS011;51077;42.716;23.344;2023-05-07T06:04:08;5.90;;;3.73;;
64667;SDS011;51077;42.716;23.344;2023-05-07T06:06:34;5.57;;;3.97;;
64667;SDS011;51077;42.716;23.344;2023-05-07T06:08:59;6.67;;;4.60;;
64667;SDS011;51077;42.716;23.344;2023-05-07T06:11:25;6.90;;;4.17;;
64667;SDS011;51077;42.716;23.344;2023-05-07T06:13:50;8.33;;;4.13;;
64667;SDS011;51077;42.716;23.344;2023-05-07T06:16:16;6.23;;;4.27;;
64667;SDS011;51077;42.716;23.344;2023-05-07T06:18:41;7.03;;;4.40;;
64667;SDS011;51077;42.716;23.344;2023-05-07T06:21:06;6.57;;;4.57;;
64667;SDS011;51077;42.716;23.344;2023-05-07T06:23:32;6.70;;;4.17;;
64667;SDS011;51077;42.716;23.344;2023-05-07T06:25:57;6.70;;;4.83;;
64667;SDS011;51077;42.716;23.344;2023-05-07T06:28:23;6.93;;;4.60;;
64667;SDS011;51077;42.716;23.344;2023-05-07T06:30:48;7.50;;;4.30;;
64667;SDS011;51077;42.716;23.344;2023-05-07T06:33:15;6.53;;;4.65;;
64667;SDS011;51077;42.716;23.344;2023-05-07T06:35:40;6.35;;;4.68;;
64667;SDS011;51077;42.716;23.344;2023-05-07T06:38:06;6.50;;;4.40;;
64667;SDS011;51077;42.716;23.344;2023-05-07T06:40:31;6.90;;;4.37;;
64667;SDS011;51077;42.716;23.344;2023-05-07T06:42:57;7.40;;;4.30;;
64667;SDS011;51077;42.716;23.344;2023-05-07T06:45:22;5.90;;;4.43;;
64667;SDS011;51077;42.716;23.344;2023-05-07T06:47:48;8.32;;;4.43;;
64667;SDS011;51077;42.716;23.344;2023-05-07T06:50:14;8.03;;;4.50;;
64667;SDS011;51077;42.716;23.344;2023-05-07T06:52:41;6.30;;;4.82;;
64667;SDS011;51077;42.716;23.344;2023-05-07T06:55:07;5.17;;;4.13;;
64667;SDS011;51077;42.716;23.344;2023-05-07T06:57:32;6.20;;;4.30;;
64667;SDS011;51077;42.716;23.344;2023-05-07T06:59:58;5.37;;;4.10;;
64667;SDS011;51077;42.716;23.344;2023-05-07T07:02:26;7.25;;;4.18;;
64667;SDS011;51077;42.716;23.344;2023-05-07T07:04:51;6.30;;;5.00;;
64667;SDS011;51077;42.716;23.344;2023-05-07T07:07:17;6.00;;;4.10;;
64667;SDS011;51077;42.716;23.344;2023-05-07T07:09:42;5.23;;;4.00;;
64667;SDS011;51077;42.716;23.344;2023-05-07T07:12:07;7.70;;;4.20;;
64667;SDS011;51077;42.716;23.344;2023-05-07T07:14:33;6.40;;;4.50;;
64667;SDS011;51077;42.716;23.344;2023-05-07T07:16:58;6.73;;;4.50;;
64667;SDS011;51077;42.716;23.344;2023-05-07T07:19:23;6.43;;;4.00;;
64667;SDS011;51077;42.716;23.344;2023-05-07T07:21:49;6.87;;;4.43;;
64667;SDS011;51077;42.716;23.344;2023-05-07T07:24:14;6.13;;;4.20;;
64667;SDS011;51077;42.716;23.344;2023-05-07T07:26:46;6.05;;;4.40;;
64667;SDS011;51077;42.716;23.344;2023-05-07T07:29:11;7.00;;;4.47;;
64667;SDS011;51077;42.716;23.344;2023-05-07T07:31:37;8.63;;;5.17;;
64667;SDS011;51077;42.716;23.344;2023-05-07T07:34:02;7.70;;;4.37;;
64667;SDS011;51077;42.716;23.344;2023-05-07T07:36:28;7.47;;;4.60;;
64667;SDS011;51077;42.716;23.344;2023-05-07T07:38:53;7.60;;;4.43;;
64667;SDS011;51077;42.716;23.344;2023-05-07T07:41:19;8.83;;;4.97;;
64667;SDS011;51077;42.716;23.344;2023-05-07T07:43:44;8.13;;;4.17;;
64667;SDS011;51077;42.716;23.344;2023-05-07T07:46:12;8.48;;;4.13;;
64667;SDS011;51077;42.716;23.344;2023-05-07T07:48:37;5.93;;;4.20;;
64667;SDS011;51077;42.716;23.344;2023-05-07T07:51:06;6.15;;;3.88;;
64667;SDS011;51077;42.716;23.344;2023-05-07T07:53:31;7.33;;;4.30;;
64667;SDS011;51077;42.716;23.344;2023-05-07T07:55:56;7.27;;;4.03;;
64667;SDS011;51077;42.716;23.344;2023-05-07T07:58:22;6.43;;;3.80;;
64667;SDS011;51077;42.716;23.344;2023-05-07T08:00:49;6.45;;;4.20;;
64667;SDS011;51077;42.716;23.344;2023-05-07T08:03:16;8.07;;;4.68;;
64667;SDS011;51077;42.716;23.344;2023-05-07T08:05:41;5.97;;;4.10;;
64667;SDS011;51077;42.716;23.344;2023-05-07T08:08:09;6.10;;;3.92;;
64667;SDS011;51077;42.716;23.344;2023-05-07T08:10:34;7.13;;;3.97;;
64667;SDS011;51077;42.716;23.344;2023-05-07T08:13:03;7.25;;;3.80;;
64667;SDS011;51077;42.716;23.344;2023-05-07T08:15:29;4.88;;;3.42;;
64667;SDS011;51077;42.716;23.344;2023-05-07T08:17:55;6.53;;;4.00;;
64667;SDS011;51077;42.716;23.344;2023-05-07T08:20:22;6.40;;;3.78;;
64667;SDS011;51077;42.716;23.344;2023-05-07T08:22:48;5.40;;;3.80;;
64667;SDS011;51077;42.716;23.344;2023-05-07T08:25:13;4.80;;;3.43;;
64667;SDS011;51077;42.716;23.344;2023-05-07T08:27:38;5.70;;;4.10;;
64667;SDS011;51077;42.716;23.344;2023-05-07T08:30:04;5.87;;;3.90;;
64667;SDS011;51077;42.716;23.344;2023-05-07T08:32:30;7.93;;;3.90;;
64667;SDS011;51077;42.716;23.344;2023-05-07T08:34:55;4.70;;;3.63;;
64667;SDS011;51077;42.716;23.344;2023-05-07T08:37:21;6.97;;;3.87;;
64667;SDS011;51077;42.716;23.344;2023-05-07T08:39:46;5.73;;;3.63;;
64667;SDS011;51077;42.716;23.344;2023-05-07T08:42:11;5.93;;;3.77;;
64667;SDS011;51077;42.716;23.344;2023-05-07T08:44:39;7.90;;;3.63;;
64667;SDS011;51077;42.716;23.344;2023-05-07T08:47:06;4.13;;;3.17;;
64667;SDS011;51077;42.716;23.344;2023-05-07T08:49:32;5.10;;;3.50;;
64667;SDS011;51077;42.716;23.344;2023-05-07T08:51:59;7.07;;;3.80;;
64667;SDS011;51077;42.716;23.344;2023-05-07T08:54:25;6.13;;;3.92;;
64667;SDS011;51077;42.716;23.344;2023-05-07T08:56:52;6.43;;;3.97;;
64667;SDS011;51077;42.716;23.344;2023-05-07T08:59:18;6.93;;;3.60;;
64667;SDS011;51077;42.716;23.344;2023-05-07T09:01:43;5.07;;;3.63;;
64667;SDS011;51077;42.716;23.344;2023-05-07T09:04:12;6.35;;;3.45;;
64667;SDS011;51077;42.716;23.344;2023-05-07T09:06:38;4.78;;;3.33;;
64667;SDS011;51077;42.716;23.344;2023-05-07T09:09:06;4.63;;;3.17;;
64667;SDS011;51077;42.716;23.344;2023-05-07T09:11:39;5.82;;;3.17;;
64667;SDS011;51077;42.716;23.344;2023-05-07T09:14:06;5.47;;;2.73;;
64667;SDS011;51077;42.716;23.344;2023-05-07T09:16:32;5.95;;;3.17;;
64667;SDS011;51077;42.716;23.344;2023-05-07T09:18:58;6.93;;;3.17;;
64667;SDS011;51077;42.716;23.344;2023-05-07T09:21:25;5.38;;;3.35;;
64667;SDS011;51077;42.716;23.344;2023-05-07T09:23:51;5.60;;;2.97;;
64667;SDS011;51077;42.716;23.344;2023-05-07T09:26:22;6.13;;;3.47;;
64667;SDS011;51077;42.716;23.344;2023-05-07T09:28:48;4.35;;;3.28;;
64667;SDS011;51077;42.716;23.344;2023-05-07T09:31:14;5.87;;;3.23;;
64667;SDS011;51077;42.716;23.344;2023-05-07T09:33:39;5.17;;;2.93;;
64667;SDS011;51077;42.716;23.344;2023-05-07T09:36:05;4.40;;;2.63;;
64667;SDS011;51077;42.716;23.344;2023-05-07T09:38:32;3.92;;;3.05;;
64667;SDS011;51077;42.716;23.344;2023-05-07T09:41:02;5.80;;;3.03;;
64667;SDS011;51077;42.716;23.344;2023-05-07T09:43:31;4.43;;;3.00;;
64667;SDS011;51077;42.716;23.344;2023-05-07T09:45:58;5.20;;;3.23;;
64667;SDS011;51077;42.716;23.344;2023-05-07T09:48:27;4.33;;;2.60;;
64667;SDS011;51077;42.716;23.344;2023-05-07T09:50:55;5.63;;;2.87;;
64667;SDS011;51077;42.716;23.344;2023-05-07T09:53:25;5.27;;;2.70;;
64667;SDS011;51077;42.716;23.344;2023-05-07T09:55:51;6.40;;;3.07;;
64667;SDS011;51077;42.716;23.344;2023-05-07T09:58:18;6.00;;;2.77;;
64667;SDS011;51077;42.716;23.344;2023-05-07T10:00:43;4.80;;;2.90;;
64667;SDS011;51077;42.716;23.344;2023-05-07T10:03:10;4.90;;;2.83;;
64667;SDS011;51077;42.716;23.344;2023-05-07T10:05:37;5.10;;;2.50;;
64667;SDS011;51077;42.716;23.344;2023-05-07T10:08:04;6.57;;;2.97;;
64667;SDS011;51077;42.716;23.344;2023-05-07T10:10:30;5.87;;;2.53;;
64667;SDS011;51077;42.716;23.344;2023-05-07T10:12:57;4.93;;;2.57;;
64667;SDS011;51077;42.716;23.344;2023-05-07T10:15:24;4.63;;;2.80;;
64667;SDS011;51077;42.716;23.344;2023-05-07T10:17:50;5.00;;;2.60;;
64667;SDS011;51077;42.716;23.344;2023-05-07T10:20:18;5.17;;;2.60;;
64667;SDS011;51077;42.716;23.344;2023-05-07T10:22:44;4.73;;;3.03;;
64667;SDS011;51077;42.716;23.344;2023-05-07T10:25:26;4.07;;;2.47;;
64667;SDS011;51077;42.716;23.344;2023-05-07T10:27:55;5.30;;;2.33;;
64667;SDS011;51077;42.716;23.344;2023-05-07T10:33:13;5.07;;;2.47;;
64667;SDS011;51077;42.716;23.344;2023-05-07T10:35:42;4.53;;;2.57;;
64667;SDS011;51077;42.716;23.344;2023-05-07T10:38:10;4.93;;;2.37;;
64667;SDS011;51077;42.716;23.344;2023-05-07T10:40:36;3.30;;;2.27;;
64667;SDS011;51077;42.716;23.344;2023-05-07T10:43:02;3.47;;;2.10;;
64667;SDS011;51077;42.716;23.344;2023-05-07T10:45:32;3.40;;;2.57;;
64667;SDS011;51077;42.716;23.344;2023-05-07T10:50:43;4.27;;;2.23;;
64667;SDS011;51077;42.716;23.344;2023-05-07T10:53:20;4.43;;;2.57;;
64667;SDS011;51077;42.716;23.344;2023-05-07T10:58:43;4.30;;;2.30;;
64667;SDS011;51077;42.716;23.344;2023-05-07T11:01:09;5.70;;;2.40;;
64667;SDS011;51077;42.716;23.344;2023-05-07T11:03:36;7.03;;;2.60;;
64667;SDS011;51077;42.716;23.344;2023-05-07T11:06:40;2.95;;;2.08;;
64667;SDS011;51077;42.716;23.344;2023-05-07T11:09:05;4.53;;;2.30;;
64667;SDS011;51077;42.716;23.344;2023-05-07T11:11:44;4.00;;;2.57;;
64667;SDS011;51077;42.716;23.344;2023-05-07T11:14:58;4.67;;;2.00;;
64667;SDS011;51077;42.716;23.344;2023-05-07T11:17:09;4.10;;;2.23;;
64667;SDS011;51077;42.716;23.344;2023-05-07T11:19:48;2.87;;;1.83;;
64667;SDS011;51077;42.716;23.344;2023-05-07T11:24:56;3.57;;;2.00;;
64667;SDS011;51077;42.716;23.344;2023-05-07T11:27:24;2.47;;;1.77;;
64667;SDS011;51077;42.716;23.344;2023-05-07T11:29:51;3.70;;;1.83;;
64667;SDS011;51077;42.716;23.344;2023-05-07T11:32:22;4.87;;;2.03;;
64667;SDS011;51077;42.716;23.344;2023-05-07T11:34:51;4.30;;;2.00;;
64667;SDS011;51077;42.716;23.344;2023-05-07T11:37:20;3.43;;;2.10;;
64667;SDS011;51077;42.716;23.344;2023-05-07T11:39:47;3.33;;;2.10;;
64667;SDS011;51077;42.716;23.344;2023-05-07T11:42:27;3.97;;;1.60;;
64667;SDS011;51077;42.716;23.344;2023-05-07T11:44:59;3.30;;;2.20;;
64667;SDS011;51077;42.716;23.344;2023-05-07T11:47:26;3.33;;;2.00;;
64667;SDS011;51077;42.716;23.344;2023-05-07T11:49:55;3.67;;;1.97;;
64667;SDS011;51077;42.716;23.344;2023-05-07T11:52:22;4.03;;;2.03;;
64667;SDS011;51077;42.716;23.344;2023-05-07T11:54:49;3.77;;;1.90;;
64667;SDS011;51077;42.716;23.344;2023-05-07T11:57:20;3.00;;;1.80;;
64667;SDS011;51077;42.716;23.344;2023-05-07T11:59:46;4.27;;;1.80;;
64667;SDS011;51077;42.716;23.344;2023-05-07T12:02:16;2.50;;;1.70;;
64667;SDS011;51077;42.716;23.344;2023-05-07T12:04:42;3.90;;;1.60;;
64667;SDS011;51077;42.716;23.344;2023-05-07T12:07:14;4.67;;;1.70;;
64667;SDS011;51077;42.716;23.344;2023-05-07T12:09:44;3.20;;;1.70;;
64667;SDS011;51077;42.716;23.344;2023-05-07T12:12:11;4.07;;;1.80;;
64667;SDS011;51077;42.716;23.344;2023-05-07T12:14:40;4.20;;;1.47;;
64667;SDS011;51077;42.716;23.344;2023-05-07T12:17:08;3.47;;;1.67;;
64667;SDS011;51077;42.716;23.344;2023-05-07T12:19:37;2.83;;;1.70;;
64667;SDS011;51077;42.716;23.344;2023-05-07T12:22:03;2.50;;;1.70;;
64667;SDS011;51077;42.716;23.344;2023-05-07T12:24:42;2.40;;;1.50;;
64667;SDS011;51077;42.716;23.344;2023-05-07T12:27:11;3.73;;;1.70;;
64667;SDS011;51077;42.716;23.344;2023-05-07T12:29:43;2.90;;;1.67;;
64667;SDS011;51077;42.716;23.344;2023-05-07T12:32:13;3.53;;;1.83;;
64667;SDS011;51077;42.716;23.344;2023-05-07T12:34:40;2.57;;;1.77;;
64667;SDS011;51077;42.716;23.344;2023-05-07T12:37:05;3.30;;;1.57;;
64667;SDS011;51077;42.716;23.344;2023-05-07T12:39:30;2.20;;;1.43;;
64667;SDS011;51077;42.716;23.344;2023-05-07T12:41:58;2.10;;;1.30;;
64667;SDS011;51077;42.716;23.344;2023-05-07T12:44:31;3.90;;;1.70;;
64667;SDS011;51077;42.716;23.344;2023-05-07T12:49:23;2.67;;;1.60;;
64667;SDS011;51077;42.716;23.344;2023-05-07T12:51:50;2.90;;;1.77;;
64667;SDS011;51077;42.716;23.344;2023-05-07T12:54:31;3.33;;;1.67;;
64667;SDS011;51077;42.716;23.344;2023-05-07T12:57:01;2.63;;;1.60;;
64667;SDS011;51077;42.716;23.344;2023-05-07T12:59:33;4.25;;;1.67;;
64667;SDS011;51077;42.716;23.344;2023-05-07T13:02:03;4.65;;;1.60;;
64667;SDS011;51077;42.716;23.344;2023-05-07T13:04:29;2.70;;;1.80;;
64667;SDS011;51077;42.716;23.344;2023-05-07T13:06:56;3.53;;;1.60;;
64667;SDS011;51077;42.716;23.344;2023-05-07T13:09:22;3.13;;;1.70;;
64667;SDS011;51077;42.716;23.344;2023-05-07T13:11:47;3.90;;;1.27;;
64667;SDS011;51077;42.716;23.344;2023-05-07T13:14:13;3.13;;;2.00;;
64667;SDS011;51077;42.716;23.344;2023-05-07T13:16:38;3.23;;;1.30;;
64667;SDS011;51077;42.716;23.344;2023-05-07T13:19:03;2.50;;;1.37;;
64667;SDS011;51077;42.716;23.344;2023-05-07T13:21:29;3.50;;;1.80;;
64667;SDS011;51077;42.716;23.344;2023-05-07T13:23:57;3.57;;;1.70;;
64667;SDS011;51077;42.716;23.344;2023-05-07T13:26:23;2.73;;;1.60;;
64667;SDS011;51077;42.716;23.344;2023-05-07T13:28:48;2.33;;;1.60;;
64667;SDS011;51077;42.716;23.344;2023-05-07T13:31:14;2.50;;;1.70;;
64667;SDS011;51077;42.716;23.344;2023-05-07T13:33:39;3.53;;;1.50;;
64667;SDS011;51077;42.716;23.344;2023-05-07T13:36:05;2.60;;;1.47;;
64667;SDS011;51077;42.716;23.344;2023-05-07T13:38:30;4.17;;;1.63;;
64667;SDS011;51077;42.716;23.344;2023-05-07T13:40:56;2.53;;;1.60;;
64667;SDS011;51077;42.716;23.344;2023-05-07T13:43:21;3.53;;;1.70;;
64667;SDS011;51077;42.716;23.344;2023-05-07T13:45:46;3.53;;;1.70;;
64667;SDS011;51077;42.716;23.344;2023-05-07T13:48:12;2.77;;;1.83;;
64667;SDS011;51077;42.716;23.344;2023-05-07T13:50:37;2.47;;;1.63;;
64667;SDS011;51077;42.716;23.344;2023-05-07T13:53:03;2.70;;;1.57;;
64667;SDS011;51077;42.716;23.344;2023-05-07T13:55:29;3.20;;;1.70;;
64667;SDS011;51077;42.716;23.344;2023-05-07T13:57:59;4.28;;;1.85;;
64667;SDS011;51077;42.716;23.344;2023-05-07T14:00:26;2.95;;;1.70;;
64667;SDS011;51077;42.716;23.344;2023-05-07T14:02:52;3.05;;;1.55;;
64667;SDS011;51077;42.716;23.344;2023-05-07T14:05:18;3.00;;;1.77;;
64667;SDS011;51077;42.716;23.344;2023-05-07T14:07:44;7.83;;;2.33;;
64667;SDS011;51077;42.716;23.344;2023-05-07T14:10:09;2.47;;;1.50;;
64667;SDS011;51077;42.716;23.344;2023-05-07T14:12:36;2.83;;;1.60;;
64667;SDS011;51077;42.716;23.344;2023-05-07T14:15:02;2.47;;;1.60;;
64667;SDS011;51077;42.716;23.344;2023-05-07T14:17:27;2.70;;;1.70;;
64667;SDS011;51077;42.716;23.344;2023-05-07T14:19:53;2.90;;;1.60;;
64667;SDS011;51077;42.716;23.344;2023-05-07T14:22:22;3.25;;;1.55;;
64667;SDS011;51077;42.716;23.344;2023-05-07T14:24:48;3.60;;;1.80;;
64667;SDS011;51077;42.716;23.344;2023-05-07T14:27:14;6.03;;;1.98;;
64667;SDS011;51077;42.716;23.344;2023-05-07T14:29:40;3.20;;;1.70;;
64667;SDS011;51077;42.716;23.344;2023-05-07T14:32:06;2.90;;;1.80;;
64667;SDS011;51077;42.716;23.344;2023-05-07T14:34:31;2.90;;;1.70;;
64667;SDS011;51077;42.716;23.344;2023-05-07T14:36:57;2.77;;;1.70;;
64667;SDS011;51077;42.716;23.344;2023-05-07T14:39:23;3.72;;;1.80;;
64667;SDS011;51077;42.716;23.344;2023-05-07T14:41:49;4.43;;;1.73;;
64667;SDS011;51077;42.716;23.344;2023-05-07T14:44:14;2.90;;;1.80;;